Ramon Margalef — EAEF — position and weather

sailwx.info

Track history (hours):
 
Tides and Currents Weather Stations Pressure Air Temp Water Temp Dewpoint Dewpoint Depression Visibility Wind Speed Wind Dir Waves Ship Positions

Ramon Margalef

Last reported at 2017-Nov-19 14:20 UTC. Time now 2017-Nov-21 09:59 UTC.
Position N 37°44' W 000°18'.

Length 46 m; draft 5.5 m.

Type: Other ship. MMSI: 224511000.

Date/timePositionNaut miles runAvg speedWind from/ knotsBaromVisibWave heightAir tempDewpointWater temp
2017-Nov-19 14:20N 37°44' W 000°18'411.5
2017-Nov-19 14:00N 37°42' W 000°21'611.6
2017-Nov-19 13:30N 37°37' W 000°26'611.6
2017-Nov-19 13:00N 37°33' W 000°31'911.6
2017-Nov-19 12:12N 37°27' W 000°40'311.4
2017-Nov-19 11:54N 37°25' W 000°43'511.3
2017-Nov-19 11:29N 37°21' W 000°47'611.1
2017-Nov-19 10:57N 37°18' W 000°53'21911.2
2017-Nov-18 15:21N 36°01' W 005°09'412.5
2017-Nov-18 15:00N 36°00' W 005°14'912.6
2017-Nov-18 14:16N 35°58' W 005°25'312.2
2017-Nov-18 14:00N 35°57' W 005°29'15910.9
2017-Nov-17 23:27N 36°28' W 008°42'511.5
2017-Nov-17 23:00N 36°29' W 008°48'611.4
2017-Nov-17 22:30N 36°31' W 008°55'611.5
2017-Nov-17 22:00N 36°32' W 009°02'611.3
2017-Nov-17 21:30N 36°34' W 009°09'611.4
2017-Nov-17 20:58N 36°35' W 009°16'511.4
2017-Nov-17 20:30N 36°39' W 009°21'611.7
2017-Nov-17 20:00N 36°43' W 009°26'611.6
2017-Nov-17 19:30N 36°47' W 009°31'611.5
2017-Nov-17 19:00N 36°53' W 009°33'611.6
2017-Nov-17 18:29N 36°58' W 009°35'611.5
2017-Nov-17 18:00N 37°04' W 009°37'611.2
2017-Nov-17 17:30N 37°09' W 009°38'711.4
2017-Nov-17 16:51N 37°17' W 009°40'411.6
2017-Nov-17 16:30N 37°21' W 009°42'611.6
2017-Nov-17 16:00N 37°26' W 009°43'611.8
2017-Nov-17 15:30N 37°32' W 009°45'611.8
2017-Nov-17 15:00N 37°38' W 009°47'611.8
2017-Nov-17 14:30N 37°44' W 009°48'612.0
2017-Nov-17 14:00N 37°49' W 009°50'611.9
2017-Nov-17 13:30N 37°55' W 009°52'612.1
2017-Nov-17 13:00N 38°01' W 009°53'612.0
2017-Nov-17 12:30N 38°07' W 009°55'612.0
2017-Nov-17 12:00N 38°13' W 009°57'611.9
2017-Nov-17 11:30N 38°19' W 009°59'611.8
2017-Nov-17 11:00N 38°24' W 010°00'611.9
2017-Nov-17 10:30N 38°30' W 010°02'611.5
2017-Nov-17 10:00N 38°36' W 010°04'611.4
2017-Nov-17 09:30N 38°41' W 010°05'611.4
2017-Nov-17 08:59N 38°47' W 010°05'611.5
2017-Nov-17 08:30N 38°53' W 010°05'611.6
2017-Nov-17 08:00N 38°58' W 010°04'611.8
2017-Nov-17 07:29N 39°05' W 010°03'612.0
2017-Nov-17 07:00N 39°10' W 010°02'29310.8
2017-Nov-16 03:57N 43°48' W 007°57'511.1
2017-Nov-16 03:30N 43°49' W 007°50'611.3
2017-Nov-16 03:00N 43°50' W 007°42'612.0
2017-Nov-16 02:30N 43°49' W 007°34'612.0
2017-Nov-16 02:00N 43°49' W 007°26'612.0
2017-Nov-16 01:30N 43°48' W 007°18'6211.6
2017-Nov-15 20:12N 43°42' W 005°53'211.9
2017-Nov-15 19:59N 43°42' W 005°50'611.9
2017-Nov-15 19:30N 43°41' W 005°42'611.8
2017-Nov-15 18:59N 43°40' W 005°33'611.9
2017-Nov-15 18:30N 43°40' W 005°25'612.2
2017-Nov-15 18:00N 43°39' W 005°17'712.1
2017-Nov-15 17:25N 43°38' W 005°07'2012.0
2017-Nov-15 15:45N 43°36' W 004°40'311.8
2017-Nov-15 15:30N 43°36' W 004°36'611.8
2017-Nov-15 15:00N 43°36' W 004°28'611.9
2017-Nov-15 14:30N 43°35' W 004°20'612.1
2017-Nov-15 14:00N 43°34' W 004°11'612.1
2017-Nov-15 13:30N 43°34' W 004°03'612.4
2017-Nov-15 13:00N 43°33' W 003°54'612.1
2017-Nov-15 12:30N 43°31' W 003°47'3 6.8
2017-Nov-15 12:00N 43°27' W 003°48'1 2.0
2017-Nov-15 11:29N 43°27' W 003°49'0 0.0
2017-Nov-15 10:56N 43°27' W 003°49'0 0.0
2017-Nov-15 10:21N 43°27' W 003°49'0 0.0
2017-Nov-15 10:00N 43°27' W 003°49'0 0.0
2017-Nov-15 08:49N 43°27' W 003°49'0 0.0
2017-Nov-15 08:25N 43°27' W 003°49'0 0.0
2017-Nov-15 07:52N 43°27' W 003°49'0 0.0
2017-Nov-15 07:29N 43°27' W 003°49'0 0.0
2017-Nov-15 06:56N 43°27' W 003°49'0 0.0
2017-Nov-15 06:29N 43°27' W 003°49'0 0.0
2017-Nov-15 01:24N 43°27' W 003°49'0 0.0
2017-Nov-15 01:00N 43°27' W 003°49'0 0.0
2017-Nov-15 00:27N 43°27' W 003°49'0 0.0
2017-Nov-14 23:52N 43°27' W 003°49'0 0.0
2017-Nov-14 23:28N 43°27' W 003°49'0 0.0
2017-Nov-14 22:58N 43°27' W 003°49'0 0.0
2017-Nov-14 22:17N 43°27' W 003°49'0 0.0
2017-Nov-14 20:30N 43°27' W 003°49'0 0.0
2017-Nov-14 18:25N 43°27' W 003°49'0 0.0
2017-Nov-14 17:50N 43°27' W 003°49'0 0.0
2017-Nov-14 17:29N 43°27' W 003°49'0 0.0
2017-Nov-14 17:00N 43°27' W 003°49'3 6.0
2017-Nov-14 16:30N 43°28' W 003°45'5 9.8
2017-Nov-14 16:00N 43°32' W 003°41'0 0.0
2017-Nov-14 15:30N 43°32' W 003°41'0 0.0
2017-Nov-14 15:00N 43°32' W 003°41'0 0.2
2017-Nov-14 14:30N 43°32' W 003°41'0 0.0
2017-Nov-14 14:00N 43°32' W 003°41'1 1.1
2017-Nov-14 13:30N 43°32' W 003°42'510.1
2017-Nov-14 13:01N 43°28' W 003°46'2 4.8
2017-Nov-14 12:30N 43°27' W 003°49'0 0.0
2017-Nov-14 10:37N 43°27' W 003°49'0 0.0
2017-Nov-14 10:28N 43°27' W 003°49'0 0.0
2017-Nov-14 09:53N 43°27' W 003°49'0 0.0
2017-Nov-14 08:53N 43°27' W 003°49'0 0.0
2017-Nov-14 08:06N 43°27' W 003°49'0 0.0
2017-Nov-14 08:00N 43°27' W 003°49'0 0.0
2017-Nov-14 07:30N 43°27' W 003°49'0 0.0
2017-Nov-14 07:00N 43°27' W 003°49'0 0.0
2017-Nov-14 06:25N 43°27' W 003°49'0 0.0
2017-Nov-14 05:55N 43°27' W 003°49'0 0.0
2017-Nov-14 05:26N 43°27' W 003°49'0 0.0
2017-Nov-14 04:32N 43°27' W 003°49'0 0.0
2017-Nov-14 04:26N 43°27' W 003°49'0 0.0
2017-Nov-14 03:57N 43°27' W 003°49'0 0.0
2017-Nov-14 03:21N 43°27' W 003°49'0 0.0
2017-Nov-14 02:57N 43°27' W 003°49'0 0.0
2017-Nov-14 02:01N 43°27' W 003°49'0 0.0
2017-Nov-14 01:43N 43°27' W 003°49'0 0.0
2017-Nov-14 01:25N 43°27' W 003°49'0 0.0
2017-Nov-14 00:56N 43°27' W 003°49'0 0.0
2017-Nov-14 00:08N 43°27' W 003°49'0 0.0
2017-Nov-13 23:44N 43°27' W 003°49'0 0.0
2017-Nov-13 22:21N 43°27' W 003°49'0 0.0
2017-Nov-13 22:01N 43°27' W 003°49'8 0.4
2017-Nov-13 02:00N 43°35' W 003°48'5 9.4
2017-Nov-13 01:30N 43°33' W 003°54'5 9.6
2017-Nov-13 01:00N 43°32' W 004°00'5 9.6
2017-Nov-13 00:30N 43°31' W 004°07'5 9.6
2017-Nov-13 00:00N 43°30' W 004°13'5 9.7
2017-Nov-12 23:30N 43°29' W 004°19'31 6.9
2017-Nov-12 19:03N 43°33' W 005°01'0 5.1
2017-Nov-12 19:00N 43°33' W 005°02'5 5.3
2017-Nov-12 18:02N 43°34' W 005°09'1 5.2
2017-Nov-12 17:45N 43°35' W 005°11'1 5.4
2017-Nov-12 17:30N 43°35' W 005°12'3 5.3
2017-Nov-12 17:00N 43°35' W 005°16'3 5.2
2017-Nov-12 16:27N 43°36' W 005°20'2 4.7
2017-Nov-12 16:00N 43°36' W 005°23'3 5.4
2017-Nov-12 15:28N 43°36' W 005°27'4 6.4
2017-Nov-12 14:48N 43°35' W 005°33'4 2.8
2017-Nov-12 13:19N 43°39' W 005°35'1 4.1
2017-Nov-12 12:58N 43°40' W 005°35'0 0.1
2017-Nov-12 11:10N 43°40' W 005°35'0 0.0
2017-Nov-12 10:39N 43°40' W 005°35'0 0.0
2017-Nov-12 10:30N 43°40' W 005°35'3 6.5
2017-Nov-12 10:00N 43°44' W 005°34'3 5.8
2017-Nov-12 09:30N 43°46' W 005°33'0 0.2
2017-Nov-12 08:32N 43°47' W 005°33'0 5.6
2017-Nov-12 08:30N 43°47' W 005°33'1 1.4
2017-Nov-12 07:57N 43°47' W 005°34'1 1.9
2017-Nov-12 07:30N 43°47' W 005°33'2 4.3
2017-Nov-12 06:57N 43°49' W 005°33'2 4.7
2017-Nov-12 06:29N 43°51' W 005°34'3 5.8
2017-Nov-12 05:57N 43°54' W 005°34'3 5.4
2017-Nov-12 05:24N 43°57' W 005°35'2 4.8
2017-Nov-12 05:00N 43°59' W 005°36'21 1.8
2017-Nov-11 17:20N 43°49' W 006°00'410.6
2017-Nov-11 16:58N 43°45' W 006°03'510.7
2017-Nov-11 16:29N 43°41' W 006°05'3 2.1
2017-Nov-11 14:56N 43°42' W 006°10'1 0.5
2017-Nov-11 13:51N 43°42' W 006°09'5 2.5
2017-Nov-11 12:02N 43°46' W 006°09'18 9.2
2017-Nov-11 10:05N 43°57' W 005°49'3 3.6
2017-Nov-11 09:18N 43°55' W 005°48'310.4
2017-Nov-11 09:00N 43°52' W 005°47'510.5
2017-Nov-11 08:29N 43°46' W 005°45'511.1
2017-Nov-11 08:00N 43°41' W 005°42'511.0
2017-Nov-11 07:30N 43°36' W 005°40'3 4.6
2017-Nov-11 06:54N 43°34' W 005°42'0 0.0
2017-Nov-11 06:25N 43°34' W 005°42'0 0.0
2017-Nov-11 04:56N 43°34' W 005°42'0 0.0
2017-Nov-11 04:26N 43°34' W 005°42'0 0.0
2017-Nov-11 03:51N 43°34' W 005°42'0 0.0
2017-Nov-11 03:27N 43°34' W 005°42'0 0.0
2017-Nov-11 02:57N 43°34' W 005°42'0 0.0
2017-Nov-11 02:27N 43°34' W 005°42'0 0.0
2017-Nov-11 01:58N 43°34' W 005°42'0 0.0
2017-Nov-10 21:19N 43°34' W 005°42'0 0.0
2017-Nov-10 20:55N 43°34' W 005°42'0 0.0
2017-Nov-10 20:26N 43°34' W 005°42'0 0.0
2017-Nov-10 19:56N 43°34' W 005°42'0 0.0
2017-Nov-10 19:26N 43°34' W 005°42'0 0.0
2017-Nov-10 18:57N 43°34' W 005°42'0 0.0
2017-Nov-10 18:27N 43°34' W 005°42'4 1.0
2017-Nov-10 15:02N 43°37' W 005°41'011.3
2017-Nov-10 15:00N 43°37' W 005°41'611.3
2017-Nov-10 14:30N 43°40' W 005°48'510.4
2017-Nov-10 13:59N 43°42' W 005°55'510.8
2017-Nov-10 13:30N 43°42' W 006°02'610.9
2017-Nov-10 12:58N 43°43' W 006°11'4410.1
2017-Nov-10 08:37N 43°48' W 007°11'210.9
2017-Nov-10 08:26N 43°48' W 007°14'510.8
2017-Nov-10 08:00N 43°48' W 007°20'510.7
2017-Nov-10 07:31N 43°49' W 007°28'510.9
2017-Nov-10 07:00N 43°49' W 007°35'510.9
2017-Nov-10 06:30N 43°50' W 007°43'611.0
2017-Nov-10 05:56N 43°51' W 007°51'510.6
2017-Nov-10 05:29N 43°50' W 007°58'  
Track history (hours):
 
Tides and Currents Weather Stations Pressure Air Temp Water Temp Dewpoint Dewpoint Depression Visibility Wind Speed Wind Dir Waves Ship Positions

Ramon Margalef

Last reported at 2017-Nov-19 14:20 UTC. Time now 2017-Nov-21 09:59 UTC.
Position N 37°44' W 000°18'.

Length 46 m; draft 5.5 m.

Type: Other ship. MMSI: 224511000.

Date/timePositionNaut miles runAvg speedWind from/ knotsBaromVisibWave heightAir tempDewpointWater temp
2017-Nov-19 14:20N 37°44' W 000°18'411.5
2017-Nov-19 14:00N 37°42' W 000°21'611.6
2017-Nov-19 13:30N 37°37' W 000°26'611.6
2017-Nov-19 13:00N 37°33' W 000°31'911.6
2017-Nov-19 12:12N 37°27' W 000°40'311.4
2017-Nov-19 11:54N 37°25' W 000°43'511.3
2017-Nov-19 11:29N 37°21' W 000°47'611.1
2017-Nov-19 10:57N 37°18' W 000°53'21911.2
2017-Nov-18 15:21N 36°01' W 005°09'412.5
2017-Nov-18 15:00N 36°00' W 005°14'912.6
2017-Nov-18 14:16N 35°58' W 005°25'312.2
2017-Nov-18 14:00N 35°57' W 005°29'15910.9
2017-Nov-17 23:27N 36°28' W 008°42'511.5
2017-Nov-17 23:00N 36°29' W 008°48'611.4
2017-Nov-17 22:30N 36°31' W 008°55'611.5
2017-Nov-17 22:00N 36°32' W 009°02'611.3
2017-Nov-17 21:30N 36°34' W 009°09'611.4
2017-Nov-17 20:58N 36°35' W 009°16'511.4
2017-Nov-17 20:30N 36°39' W 009°21'611.7
2017-Nov-17 20:00N 36°43' W 009°26'611.6
2017-Nov-17 19:30N 36°47' W 009°31'611.5
2017-Nov-17 19:00N 36°53' W 009°33'611.6
2017-Nov-17 18:29N 36°58' W 009°35'611.5
2017-Nov-17 18:00N 37°04' W 009°37'611.2
2017-Nov-17 17:30N 37°09' W 009°38'711.4
2017-Nov-17 16:51N 37°17' W 009°40'411.6
2017-Nov-17 16:30N 37°21' W 009°42'611.6
2017-Nov-17 16:00N 37°26' W 009°43'611.8
2017-Nov-17 15:30N 37°32' W 009°45'611.8
2017-Nov-17 15:00N 37°38' W 009°47'611.8
2017-Nov-17 14:30N 37°44' W 009°48'612.0
2017-Nov-17 14:00N 37°49' W 009°50'611.9
2017-Nov-17 13:30N 37°55' W 009°52'612.1
2017-Nov-17 13:00N 38°01' W 009°53'612.0
2017-Nov-17 12:30N 38°07' W 009°55'612.0
2017-Nov-17 12:00N 38°13' W 009°57'611.9
2017-Nov-17 11:30N 38°19' W 009°59'611.8
2017-Nov-17 11:00N 38°24' W 010°00'611.9
2017-Nov-17 10:30N 38°30' W 010°02'611.5
2017-Nov-17 10:00N 38°36' W 010°04'611.4
2017-Nov-17 09:30N 38°41' W 010°05'611.4
2017-Nov-17 08:59N 38°47' W 010°05'611.5
2017-Nov-17 08:30N 38°53' W 010°05'611.6
2017-Nov-17 08:00N 38°58' W 010°04'611.8
2017-Nov-17 07:29N 39°05' W 010°03'612.0
2017-Nov-17 07:00N 39°10' W 010°02'29310.8
2017-Nov-16 03:57N 43°48' W 007°57'511.1
2017-Nov-16 03:30N 43°49' W 007°50'611.3
2017-Nov-16 03:00N 43°50' W 007°42'612.0
2017-Nov-16 02:30N 43°49' W 007°34'612.0
2017-Nov-16 02:00N 43°49' W 007°26'612.0
2017-Nov-16 01:30N 43°48' W 007°18'6211.6
2017-Nov-15 20:12N 43°42' W 005°53'211.9
2017-Nov-15 19:59N 43°42' W 005°50'611.9
2017-Nov-15 19:30N 43°41' W 005°42'611.8
2017-Nov-15 18:59N 43°40' W 005°33'611.9
2017-Nov-15 18:30N 43°40' W 005°25'612.2
2017-Nov-15 18:00N 43°39' W 005°17'712.1
2017-Nov-15 17:25N 43°38' W 005°07'2012.0
2017-Nov-15 15:45N 43°36' W 004°40'311.8
2017-Nov-15 15:30N 43°36' W 004°36'611.8
2017-Nov-15 15:00N 43°36' W 004°28'611.9
2017-Nov-15 14:30N 43°35' W 004°20'612.1
2017-Nov-15 14:00N 43°34' W 004°11'612.1
2017-Nov-15 13:30N 43°34' W 004°03'612.4
2017-Nov-15 13:00N 43°33' W 003°54'612.1
2017-Nov-15 12:30N 43°31' W 003°47'3 6.8
2017-Nov-15 12:00N 43°27' W 003°48'1 2.0
2017-Nov-15 11:29N 43°27' W 003°49'0 0.0
2017-Nov-15 10:56N 43°27' W 003°49'0 0.0
2017-Nov-15 10:21N 43°27' W 003°49'0 0.0
2017-Nov-15 10:00N 43°27' W 003°49'0 0.0
2017-Nov-15 08:49N 43°27' W 003°49'0 0.0
2017-Nov-15 08:25N 43°27' W 003°49'0 0.0
2017-Nov-15 07:52N 43°27' W 003°49'0 0.0
2017-Nov-15 07:29N 43°27' W 003°49'0 0.0
2017-Nov-15 06:56N 43°27' W 003°49'0 0.0
2017-Nov-15 06:29N 43°27' W 003°49'0 0.0
2017-Nov-15 01:24N 43°27' W 003°49'0 0.0
2017-Nov-15 01:00N 43°27' W 003°49'0 0.0
2017-Nov-15 00:27N 43°27' W 003°49'0 0.0
2017-Nov-14 23:52N 43°27' W 003°49'0 0.0
2017-Nov-14 23:28N 43°27' W 003°49'0 0.0
2017-Nov-14 22:58N 43°27' W 003°49'0 0.0
2017-Nov-14 22:17N 43°27' W 003°49'0 0.0
2017-Nov-14 20:30N 43°27' W 003°49'0 0.0
2017-Nov-14 18:25N 43°27' W 003°49'0 0.0
2017-Nov-14 17:50N 43°27' W 003°49'0 0.0
2017-Nov-14 17:29N 43°27' W 003°49'0 0.0
2017-Nov-14 17:00N 43°27' W 003°49'3 6.0
2017-Nov-14 16:30N 43°28' W 003°45'5 9.8
2017-Nov-14 16:00N 43°32' W 003°41'0 0.0
2017-Nov-14 15:30N 43°32' W 003°41'0 0.0
2017-Nov-14 15:00N 43°32' W 003°41'0 0.2
2017-Nov-14 14:30N 43°32' W 003°41'0 0.0
2017-Nov-14 14:00N 43°32' W 003°41'1 1.1
2017-Nov-14 13:30N 43°32' W 003°42'510.1
2017-Nov-14 13:01N 43°28' W 003°46'2 4.8
2017-Nov-14 12:30N 43°27' W 003°49'0 0.0
2017-Nov-14 10:37N 43°27' W 003°49'0 0.0
2017-Nov-14 10:28N 43°27' W 003°49'0 0.0
2017-Nov-14 09:53N 43°27' W 003°49'0 0.0
2017-Nov-14 08:53N 43°27' W 003°49'0 0.0
2017-Nov-14 08:06N 43°27' W 003°49'0 0.0
2017-Nov-14 08:00N 43°27' W 003°49'0 0.0
2017-Nov-14 07:30N 43°27' W 003°49'0 0.0
2017-Nov-14 07:00N 43°27' W 003°49'0 0.0
2017-Nov-14 06:25N 43°27' W 003°49'0 0.0
2017-Nov-14 05:55N 43°27' W 003°49'0 0.0
2017-Nov-14 05:26N 43°27' W 003°49'0 0.0
2017-Nov-14 04:32N 43°27' W 003°49'0 0.0
2017-Nov-14 04:26N 43°27' W 003°49'0 0.0
2017-Nov-14 03:57N 43°27' W 003°49'0 0.0
2017-Nov-14 03:21N 43°27' W 003°49'0 0.0
2017-Nov-14 02:57N 43°27' W 003°49'0 0.0
2017-Nov-14 02:01N 43°27' W 003°49'0 0.0
2017-Nov-14 01:43N 43°27' W 003°49'0 0.0
2017-Nov-14 01:25N 43°27' W 003°49'0 0.0
2017-Nov-14 00:56N 43°27' W 003°49'0 0.0
2017-Nov-14 00:08N 43°27' W 003°49'0 0.0
2017-Nov-13 23:44N 43°27' W 003°49'0 0.0
2017-Nov-13 22:21N 43°27' W 003°49'0 0.0
2017-Nov-13 22:01N 43°27' W 003°49'8 0.4
2017-Nov-13 02:00N 43°35' W 003°48'5 9.4
2017-Nov-13 01:30N 43°33' W 003°54'5 9.6
2017-Nov-13 01:00N 43°32' W 004°00'5 9.6
2017-Nov-13 00:30N 43°31' W 004°07'5 9.6
2017-Nov-13 00:00N 43°30' W 004°13'5 9.7
2017-Nov-12 23:30N 43°29' W 004°19'31 6.9
2017-Nov-12 19:03N 43°33' W 005°01'0 5.1
2017-Nov-12 19:00N 43°33' W 005°02'5 5.3
2017-Nov-12 18:02N 43°34' W 005°09'1 5.2
2017-Nov-12 17:45N 43°35' W 005°11'1 5.4
2017-Nov-12 17:30N 43°35' W 005°12'3 5.3
2017-Nov-12 17:00N 43°35' W 005°16'3 5.2
2017-Nov-12 16:27N 43°36' W 005°20'2 4.7
2017-Nov-12 16:00N 43°36' W 005°23'3 5.4
2017-Nov-12 15:28N 43°36' W 005°27'4 6.4
2017-Nov-12 14:48N 43°35' W 005°33'4 2.8
2017-Nov-12 13:19N 43°39' W 005°35'1 4.1
2017-Nov-12 12:58N 43°40' W 005°35'0 0.1
2017-Nov-12 11:10N 43°40' W 005°35'0 0.0
2017-Nov-12 10:39N 43°40' W 005°35'0 0.0
2017-Nov-12 10:30N 43°40' W 005°35'3 6.5
2017-Nov-12 10:00N 43°44' W 005°34'3 5.8
2017-Nov-12 09:30N 43°46' W 005°33'0 0.2
2017-Nov-12 08:32N 43°47' W 005°33'0 5.6
2017-Nov-12 08:30N 43°47' W 005°33'1 1.4
2017-Nov-12 07:57N 43°47' W 005°34'1 1.9
2017-Nov-12 07:30N 43°47' W 005°33'2 4.3
2017-Nov-12 06:57N 43°49' W 005°33'2 4.7
2017-Nov-12 06:29N 43°51' W 005°34'3 5.8
2017-Nov-12 05:57N 43°54' W 005°34'3 5.4
2017-Nov-12 05:24N 43°57' W 005°35'2 4.8
2017-Nov-12 05:00N 43°59' W 005°36'21 1.8
2017-Nov-11 17:20N 43°49' W 006°00'410.6
2017-Nov-11 16:58N 43°45' W 006°03'510.7
2017-Nov-11 16:29N 43°41' W 006°05'3 2.1
2017-Nov-11 14:56N 43°42' W 006°10'1 0.5
2017-Nov-11 13:51N 43°42' W 006°09'5 2.5
2017-Nov-11 12:02N 43°46' W 006°09'18 9.2
2017-Nov-11 10:05N 43°57' W 005°49'3 3.6
2017-Nov-11 09:18N 43°55' W 005°48'310.4
2017-Nov-11 09:00N 43°52' W 005°47'510.5
2017-Nov-11 08:29N 43°46' W 005°45'511.1
2017-Nov-11 08:00N 43°41' W 005°42'511.0
2017-Nov-11 07:30N 43°36' W 005°40'3 4.6
2017-Nov-11 06:54N 43°34' W 005°42'0 0.0
2017-Nov-11 06:25N 43°34' W 005°42'0 0.0
2017-Nov-11 04:56N 43°34' W 005°42'0 0.0
2017-Nov-11 04:26N 43°34' W 005°42'0 0.0
2017-Nov-11 03:51N 43°34' W 005°42'0 0.0
2017-Nov-11 03:27N 43°34' W 005°42'0 0.0
2017-Nov-11 02:57N 43°34' W 005°42'0 0.0
2017-Nov-11 02:27N 43°34' W 005°42'0 0.0
2017-Nov-11 01:58N 43°34' W 005°42'0 0.0
2017-Nov-10 21:19N 43°34' W 005°42'0 0.0
2017-Nov-10 20:55N 43°34' W 005°42'0 0.0
2017-Nov-10 20:26N 43°34' W 005°42'0 0.0
2017-Nov-10 19:56N 43°34' W 005°42'0 0.0
2017-Nov-10 19:26N 43°34' W 005°42'0 0.0
2017-Nov-10 18:57N 43°34' W 005°42'0 0.0
2017-Nov-10 18:27N 43°34' W 005°42'4 1.0
2017-Nov-10 15:02N 43°37' W 005°41'011.3
2017-Nov-10 15:00N 43°37' W 005°41'611.3
2017-Nov-10 14:30N 43°40' W 005°48'510.4
2017-Nov-10 13:59N 43°42' W 005°55'510.8
2017-Nov-10 13:30N 43°42' W 006°02'610.9
2017-Nov-10 12:58N 43°43' W 006°11'4410.1
2017-Nov-10 08:37N 43°48' W 007°11'210.9
2017-Nov-10 08:26N 43°48' W 007°14'510.8
2017-Nov-10 08:00N 43°48' W 007°20'510.7
2017-Nov-10 07:31N 43°49' W 007°28'510.9
2017-Nov-10 07:00N 43°49' W 007°35'510.9
2017-Nov-10 06:30N 43°50' W 007°43'611.0
2017-Nov-10 05:56N 43°51' W 007°51'510.6
2017-Nov-10 05:29N 43°50' W 007°58'  

Dump ship's entire track history